createdAt,value
2022-11-30T00:01:18.968Z,3.60
2022-11-30T00:03:46.287Z,3.60
2022-11-30T00:06:16.127Z,3.60
2022-11-30T00:08:43.672Z,3.70
2022-11-30T00:11:17.710Z,3.60
2022-11-30T00:13:45.195Z,3.70
2022-11-30T00:16:12.389Z,3.70
2022-11-30T00:18:39.588Z,3.70
2022-11-30T00:21:10.211Z,3.60
2022-11-30T00:23:42.410Z,3.60
2022-11-30T00:26:12.013Z,3.60
2022-11-30T00:28:40.184Z,3.60
2022-11-30T00:31:12.208Z,3.60
2022-11-30T00:33:39.856Z,3.60
2022-11-30T00:36:10.897Z,3.60
2022-11-30T00:38:38.298Z,3.70
2022-11-30T00:41:05.655Z,3.70
2022-11-30T00:43:32.974Z,3.70
2022-11-30T00:46:00.187Z,3.70
2022-11-30T00:48:27.619Z,3.70
2022-11-30T00:50:54.785Z,3.70
2022-11-30T00:53:22.126Z,3.70
2022-11-30T00:55:49.742Z,3.70
2022-11-30T00:58:17.183Z,3.70
2022-11-30T01:00:44.686Z,3.70
2022-11-30T01:03:12.022Z,3.70
2022-11-30T01:05:39.673Z,3.70
2022-11-30T01:08:09.058Z,3.70
2022-11-30T01:10:38.600Z,3.70
2022-11-30T01:13:06.600Z,3.70
2022-11-30T01:15:43.827Z,3.70
2022-11-30T01:18:11.350Z,3.60
2022-11-30T01:20:44.630Z,3.60
2022-11-30T01:23:12.095Z,3.60
2022-11-30T01:25:39.426Z,3.60
2022-11-30T01:28:08.740Z,3.60
2022-11-30T01:30:35.901Z,3.60
2022-11-30T01:33:04.559Z,3.70
2022-11-30T01:35:31.775Z,3.60
2022-11-30T01:37:58.930Z,3.70
2022-11-30T01:40:26.071Z,3.60
2022-11-30T01:42:53.233Z,3.70
2022-11-30T01:45:20.394Z,3.60
2022-11-30T01:47:52.488Z,3.60
2022-11-30T01:50:30.557Z,3.60
2022-11-30T01:52:58.112Z,3.60
2022-11-30T01:55:34.817Z,3.60
2022-11-30T01:58:23.712Z,3.60
2022-11-30T02:00:51.079Z,3.60
2022-11-30T02:03:33.235Z,3.70
2022-11-30T02:06:00.966Z,3.70
2022-11-30T02:08:30.389Z,3.70
2022-11-30T02:11:04.587Z,3.70
2022-11-30T02:13:58.451Z,3.70
2022-11-30T02:16:49.625Z,3.70
2022-11-30T02:19:35.523Z,3.70
2022-11-30T02:22:17.959Z,3.70
2022-11-30T02:25:15.840Z,3.70
2022-11-30T02:28:10.198Z,3.70
2022-11-30T02:30:43.676Z,3.70
2022-11-30T02:33:15.339Z,3.70
2022-11-30T02:35:50.332Z,3.70
2022-11-30T02:38:23.870Z,3.70
2022-11-30T02:40:51.104Z,3.70
2022-11-30T02:43:21.531Z,3.70
2022-11-30T02:45:58.549Z,3.70
2022-11-30T02:48:49.306Z,3.70
2022-11-30T02:51:20.089Z,3.70
2022-11-30T02:53:48.594Z,3.70
2022-11-30T02:56:17.354Z,3.60
2022-11-30T02:58:44.603Z,3.50
2022-11-30T03:01:11.810Z,3.50
2022-11-30T03:03:39.110Z,3.40
2022-11-30T03:06:06.426Z,3.50
2022-11-30T03:08:33.571Z,3.50
2022-11-30T03:11:05.202Z,3.50
2022-11-30T03:13:33.556Z,3.50
2022-11-30T03:16:12.537Z,3.50
2022-11-30T03:18:40.536Z,3.40
2022-11-30T03:21:09.671Z,3.50
2022-11-30T03:23:37.870Z,3.60
2022-11-30T03:26:06.647Z,3.60
2022-11-30T03:28:34.425Z,3.60
2022-11-30T03:31:01.825Z,3.60
2022-11-30T03:33:29.020Z,3.60
2022-11-30T03:36:01.258Z,3.70
2022-11-30T03:38:28.997Z,3.70
2022-11-30T03:41:04.184Z,3.70
2022-11-30T03:43:31.414Z,3.70
2022-11-30T03:45:59.051Z,3.70
2022-11-30T03:48:26.392Z,3.70
2022-11-30T03:50:53.662Z,3.70
2022-11-30T03:53:22.694Z,3.70
2022-11-30T03:55:57.905Z,3.70
2022-11-30T03:58:25.769Z,3.60
2022-11-30T04:01:08.621Z,3.60
2022-11-30T04:03:36.145Z,3.60
2022-11-30T04:06:05.344Z,3.70
2022-11-30T04:08:33.220Z,3.70
2022-11-30T04:11:02.577Z,3.70
2022-11-30T04:13:31.392Z,3.70
2022-11-30T04:15:59.085Z,3.70
2022-11-30T04:18:27.677Z,3.60
2022-11-30T04:20:56.459Z,3.60
2022-11-30T04:23:25.207Z,3.60
2022-11-30T04:25:52.804Z,3.50
2022-11-30T04:28:20.436Z,3.50
2022-11-30T04:30:47.909Z,3.50
2022-11-30T04:33:16.446Z,3.60
2022-11-30T04:35:50.777Z,3.60
2022-11-30T04:38:18.038Z,3.50
2022-11-30T04:40:45.872Z,3.50
2022-11-30T04:43:13.377Z,3.60
2022-11-30T04:45:40.876Z,3.60
2022-11-30T04:48:08.614Z,3.60
2022-11-30T04:50:36.175Z,3.50
2022-11-30T04:53:03.739Z,3.50
2022-11-30T04:55:31.308Z,3.50
2022-11-30T04:57:58.628Z,3.50
2022-11-30T05:00:26.011Z,3.50
2022-11-30T05:02:55.083Z,3.50
2022-11-30T05:05:22.582Z,3.40
2022-11-30T05:07:59.613Z,3.40
2022-11-30T05:10:28.162Z,3.40
2022-11-30T05:12:56.224Z,3.40
2022-11-30T05:15:23.419Z,3.40
2022-11-30T05:17:50.600Z,3.50
2022-11-30T05:20:17.775Z,3.40
2022-11-30T05:22:44.925Z,3.40
2022-11-30T05:25:12.443Z,3.40
2022-11-30T05:27:39.619Z,3.30
2022-11-30T05:30:07.988Z,3.30
2022-11-30T05:32:35.250Z,3.30
2022-11-30T05:35:02.437Z,3.40
2022-11-30T05:37:29.777Z,3.30
2022-11-30T05:39:56.938Z,3.30
2022-11-30T05:42:24.165Z,3.30
2022-11-30T05:44:51.363Z,3.30
2022-11-30T05:47:18.663Z,3.40
2022-11-30T05:49:45.893Z,3.40
2022-11-30T05:52:13.050Z,3.40
2022-11-30T05:54:40.202Z,3.50
2022-11-30T05:57:07.377Z,3.50
2022-11-30T05:59:34.540Z,3.50
2022-11-30T06:02:01.832Z,3.50
2022-11-30T06:04:29.239Z,3.60
2022-11-30T06:06:56.554Z,3.60
2022-11-30T06:09:23.767Z,3.60
2022-11-30T06:11:51.427Z,3.60
2022-11-30T06:14:18.586Z,3.60
2022-11-30T06:16:45.987Z,3.60
2022-11-30T06:19:13.210Z,3.70
2022-11-30T06:21:40.351Z,3.60
2022-11-30T06:24:07.857Z,3.70
2022-11-30T06:26:34.992Z,3.70
2022-11-30T06:29:02.153Z,3.70
2022-11-30T06:31:31.279Z,3.70
2022-11-30T06:33:58.828Z,3.70
2022-11-30T06:36:28.886Z,3.70
2022-11-30T06:38:59.849Z,3.70
2022-11-30T06:41:27.044Z,3.70
2022-11-30T06:43:54.207Z,3.70
2022-11-30T06:46:22.150Z,3.80
2022-11-30T06:48:50.761Z,3.80
2022-11-30T06:51:18.564Z,3.80
2022-11-30T06:53:46.458Z,3.80
2022-11-30T06:56:13.854Z,3.80
2022-11-30T06:58:41.801Z,3.80
2022-11-30T07:01:12.323Z,3.80
2022-11-30T07:03:40.384Z,3.80
2022-11-30T07:06:10.334Z,3.90
2022-11-30T07:08:38.248Z,3.80
2022-11-30T07:11:06.949Z,3.80
2022-11-30T07:13:34.225Z,3.80
2022-11-30T07:16:05.342Z,3.90
2022-11-30T07:18:33.211Z,3.90
2022-11-30T07:21:01.204Z,3.80
2022-11-30T07:23:52.343Z,3.90
2022-11-30T07:26:23.937Z,4.00
2022-11-30T07:28:54.980Z,3.90
2022-11-30T07:31:27.704Z,4.00
2022-11-30T07:33:56.090Z,4.00
2022-11-30T07:36:25.806Z,4.00
2022-11-30T07:38:52.950Z,4.00
2022-11-30T07:41:20.109Z,4.00
2022-11-30T07:43:47.289Z,4.00
2022-11-30T07:46:16.100Z,4.10
2022-11-30T07:48:44.722Z,4.10
2022-11-30T07:51:22.165Z,4.00
2022-11-30T07:53:50.118Z,4.10
2022-11-30T07:56:19.667Z,4.10
2022-11-30T07:58:48.399Z,4.10
2022-11-30T08:01:21.723Z,4.10
2022-11-30T08:03:50.287Z,4.10
2022-11-30T08:06:20.873Z,4.10
2022-11-30T08:08:50.089Z,4.10
2022-11-30T08:11:20.733Z,4.10
2022-11-30T08:13:48.106Z,4.10
2022-11-30T08:16:21.389Z,4.10
2022-11-30T08:18:49.473Z,4.10
2022-11-30T08:21:19.315Z,4.20
2022-11-30T08:23:49.154Z,4.30
2022-11-30T08:26:21.110Z,4.30
2022-11-30T08:28:51.051Z,4.30
2022-11-30T08:31:21.509Z,4.30
2022-11-30T08:33:48.963Z,4.40
2022-11-30T08:36:21.565Z,4.30
2022-11-30T08:38:49.446Z,4.40
2022-11-30T08:41:19.429Z,4.40
2022-11-30T08:43:47.730Z,4.40
2022-11-30T08:49:22.461Z,4.40
2022-11-30T08:54:42.609Z,4.40
2022-11-30T08:57:09.973Z,4.50
2022-11-30T08:59:37.281Z,4.50
2022-11-30T09:02:04.570Z,4.40
2022-11-30T09:04:31.705Z,4.40
2022-11-30T09:07:00.711Z,4.40
2022-11-30T09:09:28.673Z,4.40
2022-11-30T09:11:55.906Z,4.30
2022-11-30T09:14:23.130Z,4.30
2022-11-30T09:16:50.284Z,4.40
2022-11-30T09:19:17.588Z,4.40
2022-11-30T09:21:51.143Z,4.60
2022-11-30T09:24:19.144Z,4.50
2022-11-30T09:26:46.339Z,4.60
2022-11-30T09:29:13.524Z,4.60
2022-11-30T09:31:40.712Z,4.60
2022-11-30T09:34:10.586Z,4.60
2022-11-30T09:36:37.770Z,4.60
2022-11-30T09:39:05.079Z,4.70
2022-11-30T09:41:53.196Z,4.70
2022-11-30T09:44:35.861Z,4.80
2022-11-30T09:47:08.341Z,4.90
2022-11-30T09:49:40.762Z,4.90
2022-11-30T09:52:14.045Z,5.00
2022-11-30T09:54:43.707Z,4.90
2022-11-30T09:57:13.658Z,4.90
2022-11-30T09:59:48.473Z,4.90
2022-11-30T10:02:18.974Z,4.90
2022-11-30T10:04:46.537Z,4.90
2022-11-30T10:07:36.330Z,4.90
2022-11-30T10:10:30.948Z,4.90
2022-11-30T10:13:24.990Z,4.90
2022-11-30T10:16:16.053Z,4.90
2022-11-30T10:19:06.077Z,4.90
2022-11-30T10:22:01.323Z,4.90
2022-11-30T10:24:56.755Z,4.90
2022-11-30T10:27:50.924Z,4.90
2022-11-30T10:30:23.715Z,4.80
2022-11-30T10:32:55.945Z,4.90
2022-11-30T10:35:39.204Z,4.80
2022-11-30T10:38:36.802Z,4.90
2022-11-30T10:41:14.614Z,4.90
2022-11-30T10:43:44.845Z,4.90
2022-11-30T10:46:24.463Z,4.90
2022-11-30T10:49:08.040Z,4.90
2022-11-30T10:51:38.778Z,5.00
2022-11-30T10:54:18.053Z,5.00
2022-11-30T10:56:45.910Z,5.00
2022-11-30T10:59:23.662Z,5.00
2022-11-30T11:01:53.016Z,5.10
2022-11-30T11:04:25.656Z,5.00
2022-11-30T11:07:09.164Z,5.00
2022-11-30T11:09:46.909Z,5.10
2022-11-30T11:12:27.508Z,5.10
2022-11-30T11:15:17.089Z,5.10
2022-11-30T11:17:44.973Z,5.10
2022-11-30T11:20:44.893Z,5.20
2022-11-30T11:23:45.253Z,5.20
2022-11-30T11:26:18.706Z,5.30
2022-11-30T11:28:49.990Z,5.30
2022-11-30T11:31:50.865Z,5.30
2022-11-30T11:34:32.413Z,5.30
2022-11-30T11:37:07.519Z,5.30
2022-11-30T11:39:34.701Z,5.40
2022-11-30T11:42:03.630Z,5.30
2022-11-30T11:44:31.685Z,5.30
2022-11-30T11:47:02.327Z,5.30
2022-11-30T11:49:37.733Z,5.30
2022-11-30T11:52:05.929Z,5.30
2022-11-30T11:54:55.130Z,5.30
2022-11-30T11:57:28.334Z,5.30
2022-11-30T12:00:02.341Z,5.30
2022-11-30T12:02:52.810Z,5.30
2022-11-30T12:05:24.475Z,5.30
2022-11-30T12:08:05.580Z,5.20
2022-11-30T12:10:53.032Z,5.10
2022-11-30T12:13:27.166Z,5.00
2022-11-30T12:16:05.175Z,5.00
2022-11-30T12:19:07.699Z,4.90
2022-11-30T12:21:53.586Z,5.00
2022-11-30T12:24:20.695Z,4.90
2022-11-30T12:26:58.403Z,4.90
2022-11-30T12:29:34.351Z,4.90
2022-11-30T12:32:23.014Z,4.90
2022-11-30T12:35:11.218Z,4.90
2022-11-30T12:37:47.167Z,4.90
2022-11-30T12:40:32.826Z,4.90
2022-11-30T12:43:22.583Z,4.80
2022-11-30T12:45:55.936Z,4.80
2022-11-30T12:48:25.884Z,4.90
2022-11-30T12:51:07.890Z,4.90
2022-11-30T12:53:53.750Z,5.00
2022-11-30T12:56:31.079Z,5.10
2022-11-30T12:59:31.941Z,5.10
2022-11-30T13:02:18.034Z,5.10
2022-11-30T13:04:58.237Z,5.10
2022-11-30T13:07:29.016Z,5.10
2022-11-30T13:10:12.470Z,5.20
2022-11-30T13:12:44.989Z,5.20
2022-11-30T13:15:31.139Z,5.30
2022-11-30T13:17:58.741Z,5.30
2022-11-30T13:20:51.608Z,5.20
2022-11-30T13:23:36.031Z,5.10
2022-11-30T13:26:25.989Z,5.10
2022-11-30T13:29:03.980Z,5.10
2022-11-30T13:31:40.418Z,5.00
2022-11-30T13:34:27.407Z,5.00
2022-11-30T13:37:23.098Z,4.90
2022-11-30T13:39:57.410Z,5.00
2022-11-30T13:42:35.673Z,4.90
2022-11-30T13:45:11.865Z,4.90
2022-11-30T13:48:00.712Z,4.90
2022-11-30T13:50:37.091Z,4.80
2022-11-30T13:53:04.295Z,4.80
2022-11-30T13:55:49.619Z,4.80
2022-11-30T13:58:19.454Z,4.80
2022-11-30T14:01:18.587Z,4.70
2022-11-30T14:04:14.399Z,4.70
2022-11-30T14:06:41.568Z,4.70
2022-11-30T14:09:35.773Z,4.70
2022-11-30T14:12:30.974Z,4.70
2022-11-30T14:14:59.255Z,4.70
2022-11-30T14:17:28.301Z,4.60
2022-11-30T14:20:07.225Z,4.50
2022-11-30T14:22:34.965Z,4.50
2022-11-30T14:25:02.922Z,4.50
2022-11-30T14:27:30.989Z,4.50
2022-11-30T14:30:03.073Z,4.40
2022-11-30T14:32:35.228Z,4.50
2022-11-30T14:35:09.305Z,4.40
2022-11-30T14:37:43.701Z,4.40
2022-11-30T14:40:19.129Z,4.40
2022-11-30T14:42:49.599Z,4.40
2022-11-30T14:45:35.302Z,4.50
2022-11-30T14:48:13.938Z,4.40
2022-11-30T14:50:51.518Z,4.40
2022-11-30T14:53:34.158Z,4.40
2022-11-30T14:56:24.457Z,4.40
2022-11-30T14:59:23.050Z,4.40
2022-11-30T15:01:59.860Z,4.40
2022-11-30T15:04:29.058Z,4.30
2022-11-30T15:06:57.278Z,4.30
2022-11-30T15:09:28.128Z,4.20
2022-11-30T15:11:56.113Z,4.20
2022-11-30T15:14:24.282Z,4.10
2022-11-30T15:16:54.693Z,4.10
2022-11-30T15:19:29.043Z,4.10
2022-11-30T15:21:57.879Z,4.10
2022-11-30T15:24:26.484Z,4.00
2022-11-30T15:27:14.042Z,4.00
2022-11-30T15:29:46.856Z,4.00
2022-11-30T15:32:20.111Z,3.90
2022-11-30T15:34:52.220Z,4.00
2022-11-30T15:37:29.451Z,3.90
2022-11-30T15:39:59.648Z,3.90
2022-11-30T15:42:40.957Z,3.90
2022-11-30T15:45:26.125Z,3.90
2022-11-30T15:47:55.041Z,3.80
2022-11-30T15:50:31.121Z,3.70
2022-11-30T15:53:20.245Z,3.60
2022-11-30T15:55:49.668Z,3.60
2022-11-30T15:59:00.633Z,3.50
2022-11-30T16:01:28.690Z,3.50
2022-11-30T16:03:55.943Z,3.50
2022-11-30T16:06:44.052Z,3.40
2022-11-30T16:09:32.239Z,3.50
2022-11-30T16:12:01.740Z,3.50
2022-11-30T16:14:28.998Z,3.50
2022-11-30T16:16:56.762Z,3.50
2022-11-30T16:19:23.990Z,3.50
2022-11-30T16:21:51.235Z,3.50
2022-11-30T16:24:18.565Z,3.50
2022-11-30T16:26:51.294Z,3.40
2022-11-30T16:29:19.567Z,3.40
2022-11-30T16:31:46.777Z,3.40
2022-11-30T16:34:14.026Z,3.30
2022-11-30T16:36:41.227Z,3.40
2022-11-30T16:39:12.264Z,3.40
2022-11-30T16:41:39.709Z,3.40
2022-11-30T16:44:13.398Z,3.40
2022-11-30T16:46:40.656Z,3.40
2022-11-30T16:49:08.687Z,3.40
2022-11-30T16:51:36.313Z,3.40
2022-11-30T16:54:03.838Z,3.40
2022-11-30T16:56:31.079Z,3.40
2022-11-30T16:58:58.222Z,3.40
2022-11-30T17:01:44.727Z,3.30
2022-11-30T17:04:23.879Z,3.20
2022-11-30T17:06:53.779Z,3.20
2022-11-30T17:09:24.670Z,3.20
2022-11-30T17:11:51.921Z,3.20
2022-11-30T17:14:20.989Z,3.20
2022-11-30T17:16:48.238Z,3.10
2022-11-30T17:19:15.482Z,3.10
2022-11-30T17:21:44.376Z,3.10
2022-11-30T17:24:12.809Z,3.20
2022-11-30T17:26:40.417Z,3.10
2022-11-30T17:29:07.678Z,3.10
2022-11-30T17:31:35.531Z,3.00
2022-11-30T17:34:03.530Z,3.00
2022-11-30T17:36:30.793Z,2.90
2022-11-30T17:38:57.969Z,3.00
2022-11-30T17:41:25.135Z,3.00
2022-11-30T17:43:52.319Z,3.10
2022-11-30T17:46:20.944Z,3.20
2022-11-30T17:48:49.606Z,3.20
2022-11-30T17:51:17.063Z,3.20
2022-11-30T17:53:44.652Z,3.30
2022-11-30T17:56:17.090Z,3.20
2022-11-30T17:58:46.071Z,3.20
2022-11-30T18:01:33.520Z,3.30
2022-11-30T18:04:00.943Z,3.20
2022-11-30T18:06:28.898Z,3.30
2022-11-30T18:08:57.523Z,3.30
2022-11-30T18:11:26.028Z,3.30
2022-11-30T18:13:55.321Z,3.30
2022-11-30T18:16:28.062Z,3.30
2022-11-30T18:18:57.240Z,3.30
2022-11-30T18:21:27.716Z,3.30
2022-11-30T18:23:55.245Z,3.30
2022-11-30T18:26:24.168Z,3.30
2022-11-30T18:29:01.556Z,3.30
2022-11-30T18:31:30.625Z,3.30
2022-11-30T18:33:59.636Z,3.30
2022-11-30T18:36:27.505Z,3.30
2022-11-30T18:38:55.002Z,3.30
2022-11-30T18:41:24.067Z,3.30
2022-11-30T18:43:51.351Z,3.30
2022-11-30T18:46:18.560Z,3.20
2022-11-30T18:48:49.009Z,3.20
2022-11-30T18:51:22.040Z,3.20
2022-11-30T18:53:49.443Z,3.20
2022-11-30T18:56:19.519Z,3.20
2022-11-30T18:58:47.774Z,3.20
2022-11-30T19:01:20.250Z,3.30
2022-11-30T19:03:55.598Z,3.30
2022-11-30T19:06:25.169Z,3.30
2022-11-30T19:08:52.320Z,3.30
2022-11-30T19:11:19.597Z,3.20
2022-11-30T19:13:46.778Z,3.20
2022-11-30T19:16:16.405Z,3.20
2022-11-30T19:18:46.683Z,3.20
2022-11-30T19:21:16.165Z,3.30
2022-11-30T19:23:43.574Z,3.30
2022-11-30T19:26:11.345Z,3.30
2022-11-30T19:28:39.817Z,3.30
2022-11-30T19:31:12.691Z,3.30
2022-11-30T19:33:41.265Z,3.30
2022-11-30T19:36:23.622Z,3.30
2022-11-30T19:38:51.425Z,3.40
2022-11-30T19:41:20.115Z,3.40
2022-11-30T19:43:53.966Z,3.40
2022-11-30T19:46:24.636Z,3.40
2022-11-30T19:48:57.842Z,3.40
2022-11-30T19:51:25.002Z,3.40
2022-11-30T19:53:55.489Z,3.40
2022-11-30T19:56:23.601Z,3.40
2022-11-30T19:58:51.132Z,3.40
2022-11-30T20:01:23.981Z,3.40
2022-11-30T20:03:52.795Z,3.40
2022-11-30T20:06:23.477Z,3.50
2022-11-30T20:08:50.632Z,3.50
2022-11-30T20:11:17.767Z,3.50
2022-11-30T20:13:45.868Z,3.50
2022-11-30T20:16:16.095Z,3.50
2022-11-30T20:18:46.559Z,3.50
2022-11-30T20:21:17.792Z,3.50
2022-11-30T20:23:46.960Z,3.50
2022-11-30T20:26:20.028Z,3.50
2022-11-30T20:28:48.953Z,3.50
2022-11-30T20:31:18.387Z,3.50
2022-11-30T20:33:45.873Z,3.50
2022-11-30T20:36:15.700Z,3.40
2022-11-30T20:38:42.927Z,3.40
2022-11-30T20:41:16.009Z,3.40
2022-11-30T20:43:43.628Z,3.40
2022-11-30T20:46:19.509Z,3.40
2022-11-30T20:48:47.813Z,3.40
2022-11-30T20:51:32.515Z,3.40
2022-11-30T20:54:06.721Z,3.40
2022-11-30T20:56:38.023Z,3.40
2022-11-30T20:59:08.180Z,3.40
2022-11-30T21:01:35.872Z,3.40
2022-11-30T21:04:03.159Z,3.40
2022-11-30T21:06:30.585Z,3.30
2022-11-30T21:08:58.657Z,3.30
2022-11-30T21:11:27.398Z,3.20
2022-11-30T21:13:55.175Z,3.20
2022-11-30T21:16:28.104Z,3.20
2022-11-30T21:18:58.211Z,3.20
2022-11-30T21:21:27.939Z,3.20
2022-11-30T21:23:56.831Z,3.20
2022-11-30T21:26:27.056Z,3.20
2022-11-30T21:28:58.213Z,3.10
2022-11-30T21:31:25.663Z,3.10
2022-11-30T21:33:53.932Z,3.10
2022-11-30T21:36:22.464Z,3.10
2022-11-30T21:39:04.462Z,3.20
2022-11-30T21:41:33.769Z,3.20
2022-11-30T21:44:01.162Z,3.20
2022-11-30T21:46:28.423Z,3.20
2022-11-30T21:48:55.883Z,3.20
2022-11-30T21:51:25.225Z,3.20
2022-11-30T21:54:00.644Z,3.20
2022-11-30T21:56:30.825Z,3.10
2022-11-30T21:58:58.421Z,3.10
2022-11-30T22:01:29.135Z,3.10
2022-11-30T22:03:58.186Z,3.20
2022-11-30T22:06:26.486Z,3.20
2022-11-30T22:09:02.906Z,3.20
2022-11-30T22:11:30.992Z,3.20
2022-11-30T22:13:58.380Z,3.20
2022-11-30T22:16:32.456Z,3.20
2022-11-30T22:19:05.297Z,3.20
2022-11-30T22:21:33.806Z,3.20
2022-11-30T22:24:03.887Z,3.20
2022-11-30T22:26:33.678Z,3.20
2022-11-30T22:29:15.978Z,3.20
2022-11-30T22:31:45.943Z,3.20
2022-11-30T22:34:13.719Z,3.20
2022-11-30T22:36:42.802Z,3.20
2022-11-30T22:39:18.253Z,3.20
2022-11-30T22:41:49.960Z,3.20
2022-11-30T22:44:21.919Z,3.30
2022-11-30T22:46:49.303Z,3.30
2022-11-30T22:49:21.163Z,3.30
2022-11-30T22:51:50.089Z,3.30
2022-11-30T22:54:18.398Z,3.30
2022-11-30T22:56:46.695Z,3.30
2022-11-30T22:59:15.181Z,3.20
2022-11-30T23:01:45.543Z,3.20
2022-11-30T23:04:18.385Z,3.10
2022-11-30T23:06:47.374Z,3.10
2022-11-30T23:09:17.692Z,3.10
2022-11-30T23:11:45.328Z,3.10
2022-11-30T23:14:13.232Z,3.10
2022-11-30T23:16:40.687Z,3.10
2022-11-30T23:19:08.953Z,3.10
2022-11-30T23:21:41.780Z,3.00
2022-11-30T23:24:13.927Z,3.00
2022-11-30T23:26:41.957Z,3.00
2022-11-30T23:29:12.899Z,3.00
2022-11-30T23:31:42.203Z,3.00
2022-11-30T23:34:12.607Z,3.00
2022-11-30T23:36:39.822Z,2.90
2022-11-30T23:39:09.347Z,2.90
2022-11-30T23:41:36.510Z,2.90
2022-11-30T23:44:04.418Z,2.80
2022-11-30T23:46:31.595Z,2.80
2022-11-30T23:48:58.841Z,2.90
2022-11-30T23:51:26.535Z,2.90
2022-11-30T23:53:54.078Z,2.90
2022-11-30T23:56:23.170Z,3.00
2022-11-30T23:58:50.791Z,3.00
